LNA weather

Palm Beach County Park Airport
West Palm Beach, Florida, United States

Public forecast

Using degrees Fahrenheit for public forecast. Weather courtesy of forecast.io.

Closest aviation weather report (METAR) to Palm Beach County Park Airport

Closest report is Palm Beach International Airport, 5.4 nm (10.1 km) N. Retrieved 2019/10/16 10:53 UTC (27 minutes ago):

KPBI 161053Z 21004KT 10SM SCT039 BKN200 24/21 A2996 RMK AO2 SLP144 T02390211

Closest aviation forecast (TAF) to Palm Beach County Park Airport

Closest forecast is Palm Beach International Airport, 5.4 nm (10.1 km) N. Retrieved 2019/10/16 06:36 UTC (5 hours ago):

TAF KPBI 160533Z 1606/1706 12005KT P6SM FEW025 SCT050 FM161500 21010KT P6SM SCT025 SCT150 FM170200 23006KT P6SM FEW015 FEW250